»·PEaware :: N211BA KSNA-KAVX

N211BA :: KSNA-KAVX

FLIGHT INFORMATION

Flight Status: Arrived
Operator: Privately registered:
United States
More flights under this callsign
Pilot: Walter H. (552)
Aircraft: Unknown
(LEG2)
More flights by this aircraft type
Origin: KSNA John Wayne-Orange Co
United States
Destination: KAVX Catalina
United States
More flights between these airports :: More routes between these airports
Route: +SLI V21 SXC
File this flight plan on PilotEdge
Remarks: stream twitch.tv / n211ba
Altitude:
(Current/Filed)
6,000ft
Speed:
(Current/Filed)
240kts
Departed: 30-Jan-16 07:30 PM
Arrived: 30-Jan-16 07:54 PM
Distance/Time
Traveled:
32nm/0:23
Distance/Time
To Go:
Arrived

Flight Plot

Page will automatically refresh every two minutes.


Map Options




Map Legend


Flown Route
Filed Route
Departure Airport
Arrival Airport
Navaid (VOR, NDB)
Fix

Horizontal Profiles

Position Reports

Time Latitude Longitude Heading Altitude Ground
Speed
30-Jan-16 18:51 33.675262 -117.871309 219 59ft 0kts
30-Jan-16 18:52 33.675262 -117.871309 219 59ft 0kts
30-Jan-16 18:53 33.675262 -117.871309 219 59ft 0kts
30-Jan-16 18:54 33.675262 -117.871309 219 59ft 0kts
30-Jan-16 18:55 33.675262 -117.871309 219 59ft 0kts
30-Jan-16 19:03 33.668996 -117.875776 207 59ft 0kts
30-Jan-16 19:04 33.668996 -117.875776 207 59ft 0kts
30-Jan-16 19:05 33.668996 -117.875776 207 59ft 0kts
30-Jan-16 19:06 33.668996 -117.875776 207 59ft 0kts
30-Jan-16 19:09 33.667582 -117.870334 41 59ft 0kts
30-Jan-16 19:10 33.667582 -117.870334 41 59ft 0kts
30-Jan-16 19:11 33.667582 -117.870334 41 59ft 0kts
30-Jan-16 19:12 33.667582 -117.870334 41 59ft 0kts
30-Jan-16 19:13 33.667582 -117.870334 41 59ft 0kts
30-Jan-16 19:14 33.667590 -117.870325 41 59ft 0kts
30-Jan-16 19:15 33.667590 -117.870325 41 59ft 0kts
30-Jan-16 19:16 33.667590 -117.870325 41 59ft 0kts
30-Jan-16 19:17 33.667590 -117.870325 41 59ft 0kts
30-Jan-16 19:18 33.667726 -117.870389 318 59ft 2kts
30-Jan-16 19:19 33.669313 -117.870684 32 59ft 11kts
30-Jan-16 19:20 33.673108 -117.867039 34 59ft 16kts
30-Jan-16 19:21 33.678651 -117.863476 29 59ft 12kts
30-Jan-16 19:22 33.679731 -117.863834 300 59ft 0kts
30-Jan-16 19:23 33.679428 -117.864604 204 59ft 31kts
30-Jan-16 19:24 33.657261 -117.895743 242 987ft 161kts
30-Jan-16 19:25 33.636111 -117.945666 247 2087ft 199kts
30-Jan-16 19:26 33.616323 -118.014626 251 2588ft 207kts
30-Jan-16 19:27 33.598525 -118.079326 251 3641ft 204kts
30-Jan-16 19:28 33.579771 -118.145763 249 3937ft 227kts
30-Jan-16 19:29 33.558488 -118.218086 251 4007ft 232kts
30-Jan-16 19:30 33.537643 -118.292172 251 3689ft 235kts
30-Jan-16 19:31 33.517318 -118.364987 251 3213ft 209kts
30-Jan-16 19:32 33.480484 -118.404067 189 3225ft 185kts
30-Jan-16 19:33 33.427224 -118.408325 184 3188ft 195kts
30-Jan-16 19:34 33.369385 -118.412165 184 2563ft 211kts
30-Jan-16 19:35 33.320547 -118.436100 226 3372ft 188kts
30-Jan-16 19:36 33.274188 -118.471681 213 3418ft 208kts
30-Jan-16 19:37 33.265983 -118.525202 332 3224ft 215kts
30-Jan-16 19:39 33.324814 -118.529618 358 3213ft 205kts
30-Jan-16 19:40 33.381076 -118.528445 358 3215ft 199kts
30-Jan-16 19:41 33.435509 -118.514085 14 3215ft 201kts
30-Jan-16 19:42 33.489122 -118.494636 14 3214ft 201kts
30-Jan-16 19:43 33.542670 -118.474680 18 3213ft 201kts
30-Jan-16 19:44 33.593837 -118.447980 32 3209ft 199kts
30-Jan-16 19:45 33.580193 -118.400005 161 3217ft 194kts
30-Jan-16 19:46 33.527585 -118.397550 179 3191ft 194kts
30-Jan-16 19:47 33.471657 -118.397545 191 2396ft 201kts
30-Jan-16 19:48 33.421009 -118.413452 170 2186ft 157kts
30-Jan-16 19:49 33.403758 -118.416962 119 1605ft 15kts
30-Jan-16 19:50 33.403571 -118.415145 343 1605ft 0kts
30-Jan-16 19:51 33.403571 -118.415145 343 1605ft 0kts
30-Jan-16 19:52 33.403571 -118.415145 343 1605ft 0kts
30-Jan-16 19:53 33.403571 -118.415145 343 1605ft 0kts

Navigation Log

Ident Type
Flight plan parsing failed, navigation log unavailable